CheckWX is a tool to help pilots better visualize weather data.  It is not intended as a substitute for an official pre-flight weather briefing.

20:31:35 UTC

KOTH TAF
Southwest Oregon Regional Airport
North Bend, Oregon, USA
KOTH 221920Z 2219/2318 20011KT 5SM -RA BR SCT015 BKN025 OVC040 WS020/20040KT TEMPO 2219/2221 BKN015 FM222100 21008KT P6SM -SHRA SCT015 BKN040 FM230300 16005KT P6SM VCSH SCT020 BKN040

Mar-22@
19:00 UTC

Mar-22 @ 19:00 UTC

Mar-22@
21:00 UTC

Mar-22 @ 21:00 UTC

KOTH 221920Z 2219/2318 20011KT 5SM -RA BR SCT015 BKN025 OVC040 WS020/20040KT
Wind
  • 200° at 11 KTS
Conditions
Light Rain, Mist
Cloud Levels
  • Scattered at 1,500' AGL
  • Broken at 2,500' AGL
  • Overcast at 4,000' AGL

Mar-22@
19:00 UTC

Mar-22 @ 19:00 UTC

Mar-22@
21:00 UTC

Mar-22 @ 21:00 UTC

TEMPO 2219/2221 BKN015

Temporary

Temporary Changes expected for less than half the time period

Cloud Levels
  • Broken at 1,500' AGL

Mar-22@
21:00 UTC

Mar-22 @ 21:00 UTC

Mar-23@
03:00 UTC

Mar-23 @ 03:00 UTC

FM222100 21008KT P6SM -SHRA SCT015 BKN040

From

From Standard forecast or significant change

Wind
  • 210° at 8 KTS
Conditions
Light Rain
Cloud Levels
  • Scattered at 1,500' AGL
  • Broken at 4,000' AGL

Mar-23@
03:00 UTC

Mar-23 @ 03:00 UTC

Mar-23@
18:00 UTC

Mar-23 @ 18:00 UTC

FM230300 16005KT P6SM VCSH SCT020 BKN040

From

From Standard forecast or significant change

Wind
  • 160° at 5 KTS
Cloud Levels
  • Scattered at 2,000' AGL
  • Broken at 4,000' AGL